createdAt,value
2022-09-22T00:01:14.370Z,100.00
2022-09-22T00:03:42.157Z,100.00
2022-09-22T00:06:09.847Z,100.00
2022-09-22T00:08:37.749Z,100.00
2022-09-22T00:11:05.705Z,100.00
2022-09-22T00:13:33.024Z,100.00
2022-09-22T00:16:01.040Z,100.00
2022-09-22T00:18:28.294Z,100.00
2022-09-22T00:20:54.867Z,100.00
2022-09-22T00:23:25.033Z,100.00
2022-09-22T00:25:51.495Z,100.00
2022-09-22T00:28:20.185Z,100.00
2022-09-22T00:30:47.366Z,100.00
2022-09-22T00:33:13.683Z,100.00
2022-09-22T00:35:39.965Z,100.00
2022-09-22T00:38:06.360Z,100.00
2022-09-22T00:40:33.452Z,100.00
2022-09-22T00:43:13.218Z,100.00
2022-09-22T00:45:39.585Z,100.00
2022-09-22T00:48:05.886Z,100.00
2022-09-22T00:50:32.279Z,100.00
2022-09-22T00:53:01.955Z,100.00
2022-09-22T00:55:36.625Z,100.00
2022-09-22T00:58:05.830Z,100.00
2022-09-22T01:00:32.189Z,100.00
2022-09-22T01:03:00.683Z,100.00
2022-09-22T01:05:28.856Z,100.00
2022-09-22T01:07:55.200Z,100.00
2022-09-22T01:10:23.911Z,100.00
2022-09-22T01:13:08.491Z,100.00
2022-09-22T01:15:47.013Z,100.00
2022-09-22T01:18:21.296Z,100.00
2022-09-22T01:20:50.408Z,100.00
2022-09-22T01:23:35.633Z,100.00
2022-09-22T01:26:11.186Z,100.00
2022-09-22T01:28:37.467Z,100.00
2022-09-22T01:31:03.809Z,100.00
2022-09-22T01:33:39.594Z,100.00
2022-09-22T01:36:13.310Z,100.00
2022-09-22T01:38:58.460Z,100.00
2022-09-22T01:41:39.985Z,100.00
2022-09-22T01:44:09.804Z,100.00
2022-09-22T01:46:45.117Z,100.00
2022-09-22T01:49:14.504Z,100.00
2022-09-22T01:51:43.837Z,100.00
2022-09-22T01:54:12.836Z,100.00
2022-09-22T01:56:41.871Z,100.00
2022-09-22T01:59:10.626Z,100.00
2022-09-22T02:01:41.059Z,100.00
2022-09-22T02:04:11.649Z,100.00
2022-09-22T02:06:37.921Z,100.00
2022-09-22T02:09:09.138Z,100.00
2022-09-22T02:11:35.518Z,100.00
2022-09-22T02:14:02.684Z,100.00
2022-09-22T02:16:29.201Z,100.00
2022-09-22T02:19:16.802Z,100.00
2022-09-22T02:21:44.590Z,100.00
2022-09-22T02:24:26.963Z,100.00
2022-09-22T02:26:53.783Z,100.00
2022-09-22T02:29:20.141Z,100.00
2022-09-22T02:31:46.734Z,100.00
2022-09-22T02:34:13.134Z,100.00
2022-09-22T02:36:42.501Z,100.00
2022-09-22T02:39:17.760Z,100.00
2022-09-22T02:42:02.805Z,100.00
2022-09-22T02:44:38.914Z,100.00
2022-09-22T02:47:12.129Z,100.00
2022-09-22T02:49:39.061Z,100.00
2022-09-22T02:52:10.667Z,100.00
2022-09-22T02:54:37.042Z,100.00
2022-09-22T02:57:03.582Z,100.00
2022-09-22T02:59:29.880Z,100.00
2022-09-22T03:01:56.590Z,100.00
2022-09-22T03:04:22.979Z,100.00
2022-09-22T03:06:49.340Z,100.00
2022-09-22T03:09:17.560Z,100.00
2022-09-22T03:11:43.899Z,100.00
2022-09-22T03:14:10.328Z,100.00
2022-09-22T03:16:36.666Z,100.00
2022-09-22T03:19:03.042Z,100.00
2022-09-22T03:21:29.366Z,100.00
2022-09-22T03:23:55.741Z,100.00
2022-09-22T03:26:22.053Z,100.00
2022-09-22T03:28:48.689Z,100.00
2022-09-22T03:31:15.030Z,100.00
2022-09-22T03:33:41.669Z,100.00
2022-09-22T03:36:08.101Z,100.00
2022-09-22T03:38:34.904Z,100.00
2022-09-22T03:41:02.712Z,100.00
2022-09-22T03:43:29.022Z,100.00
2022-09-22T03:45:56.113Z,100.00
2022-09-22T03:48:22.596Z,100.00
2022-09-22T03:50:48.893Z,100.00
2022-09-22T03:53:15.532Z,100.00
2022-09-22T03:55:41.850Z,100.00
2022-09-22T03:58:08.153Z,100.00
2022-09-22T04:00:34.460Z,100.00
2022-09-22T04:03:00.785Z,100.00
2022-09-22T04:05:27.387Z,100.00
2022-09-22T04:07:53.770Z,100.00
2022-09-22T04:10:21.269Z,100.00
2022-09-22T04:12:47.950Z,100.00
2022-09-22T04:15:14.256Z,100.00
2022-09-22T04:17:40.753Z,100.00
2022-09-22T04:20:07.773Z,100.00
2022-09-22T04:22:34.259Z,100.00
2022-09-22T04:25:00.569Z,100.00
2022-09-22T04:27:26.873Z,100.00
2022-09-22T04:29:53.225Z,100.00
2022-09-22T04:32:19.814Z,100.00
2022-09-22T04:34:46.122Z,100.00
2022-09-22T04:37:12.500Z,100.00
2022-09-22T04:39:38.903Z,100.00
2022-09-22T04:42:05.377Z,100.00
2022-09-22T04:44:34.917Z,100.00
2022-09-22T04:47:01.645Z,100.00
2022-09-22T04:49:27.968Z,100.00
2022-09-22T04:51:54.328Z,100.00
2022-09-22T04:54:20.710Z,100.00
2022-09-22T04:56:47.178Z,100.00
2022-09-22T04:59:13.498Z,100.00
2022-09-22T05:01:39.942Z,100.00
2022-09-22T05:04:06.303Z,100.00
2022-09-22T05:06:32.683Z,100.00
2022-09-22T05:08:59.045Z,100.00
2022-09-22T05:11:25.428Z,100.00
2022-09-22T05:13:51.780Z,100.00
2022-09-22T05:16:18.443Z,100.00
2022-09-22T05:18:45.051Z,100.00
2022-09-22T05:21:11.374Z,100.00
2022-09-22T05:23:39.140Z,100.00
2022-09-22T05:26:05.456Z,100.00
2022-09-22T05:28:31.762Z,100.00
2022-09-22T05:30:58.258Z,100.00
2022-09-22T05:33:24.554Z,100.00
2022-09-22T05:35:50.894Z,100.00
2022-09-22T05:38:17.213Z,100.00
2022-09-22T05:40:45.102Z,100.00
2022-09-22T05:43:11.466Z,100.00
2022-09-22T05:45:37.850Z,100.00
2022-09-22T05:48:04.201Z,100.00
2022-09-22T05:50:30.637Z,100.00
2022-09-22T05:53:07.449Z,100.00
2022-09-22T05:55:34.324Z,100.00
2022-09-22T05:58:00.660Z,100.00
2022-09-22T06:00:27.355Z,100.00
2022-09-22T06:02:53.804Z,100.00
2022-09-22T06:05:20.204Z,100.00
2022-09-22T06:07:46.848Z,100.00
2022-09-22T06:10:13.220Z,100.00
2022-09-22T06:12:39.761Z,100.00
2022-09-22T06:15:06.603Z,100.00
2022-09-22T06:17:32.922Z,100.00
2022-09-22T06:20:00.750Z,100.00
2022-09-22T06:22:27.284Z,100.00
2022-09-22T06:24:53.737Z,100.00
2022-09-22T06:27:20.070Z,100.00
2022-09-22T06:29:46.384Z,100.00
2022-09-22T06:32:12.707Z,100.00
2022-09-22T06:34:39.065Z,100.00
2022-09-22T06:37:08.405Z,100.00
2022-09-22T06:39:37.571Z,99.70
2022-09-22T06:42:05.003Z,99.05
2022-09-22T06:44:31.886Z,98.45
2022-09-22T06:46:58.342Z,97.98
2022-09-22T06:49:25.644Z,97.63
2022-09-22T06:51:52.020Z,97.06
2022-09-22T06:54:18.514Z,96.98
2022-09-22T06:56:45.166Z,96.43
2022-09-22T06:59:14.381Z,96.74
2022-09-22T07:01:41.576Z,96.16
2022-09-22T07:04:08.277Z,95.85
2022-09-22T07:06:35.157Z,95.05
2022-09-22T07:09:01.458Z,94.72
2022-09-22T07:11:27.781Z,94.61
2022-09-22T07:13:54.516Z,94.60
2022-09-22T07:16:24.322Z,94.14
2022-09-22T07:18:51.938Z,93.87
2022-09-22T07:21:22.744Z,93.84
2022-09-22T07:23:52.561Z,93.73
2022-09-22T07:26:20.266Z,93.34
2022-09-22T07:28:50.276Z,93.26
2022-09-22T07:31:17.191Z,93.11
2022-09-22T07:33:44.331Z,92.94
2022-09-22T07:36:18.584Z,92.92
2022-09-22T07:38:46.664Z,92.67
2022-09-22T07:41:14.141Z,92.54
2022-09-22T07:43:41.258Z,92.69
2022-09-22T07:46:08.298Z,92.54
2022-09-22T07:48:45.616Z,92.54
2022-09-22T07:51:20.456Z,92.63
2022-09-22T07:53:51.805Z,92.52
2022-09-22T07:56:21.057Z,92.21
2022-09-22T07:58:49.864Z,92.31
2022-09-22T08:01:16.894Z,92.66
2022-09-22T08:03:44.086Z,92.81
2022-09-22T08:06:11.110Z,93.00
2022-09-22T08:08:42.192Z,93.45
2022-09-22T08:11:14.947Z,94.26
2022-09-22T08:13:42.977Z,95.10
2022-09-22T08:16:10.379Z,95.07
2022-09-22T08:18:36.983Z,96.12
2022-09-22T08:21:04.313Z,97.52
2022-09-22T08:23:31.375Z,97.98
2022-09-22T08:26:03.203Z,98.74
2022-09-22T08:28:29.582Z,100.00
2022-09-22T08:30:55.898Z,100.00
2022-09-22T08:33:22.222Z,100.00
2022-09-22T08:35:54.878Z,100.00
2022-09-22T08:38:23.141Z,100.00
2022-09-22T08:40:58.402Z,100.00
2022-09-22T08:43:24.926Z,100.00
2022-09-22T08:45:52.070Z,100.00
2022-09-22T08:48:39.813Z,100.00
2022-09-22T08:51:29.134Z,100.00
2022-09-22T08:54:00.937Z,100.00
2022-09-22T08:56:30.472Z,100.00
2022-09-22T08:59:15.505Z,100.00
2022-09-22T09:02:05.662Z,100.00
2022-09-22T09:04:51.773Z,100.00
2022-09-22T09:07:21.201Z,100.00
2022-09-22T09:10:07.267Z,100.00
2022-09-22T09:12:33.548Z,100.00
2022-09-22T09:15:15.445Z,100.00
2022-09-22T09:17:42.462Z,100.00
2022-09-22T09:20:16.621Z,100.00
2022-09-22T09:22:55.598Z,100.00
2022-09-22T09:25:37.592Z,100.00
2022-09-22T09:28:06.011Z,100.00
2022-09-22T09:30:36.722Z,100.00
2022-09-22T09:33:11.390Z,100.00
2022-09-22T09:35:45.710Z,100.00
2022-09-22T09:38:14.691Z,100.00
2022-09-22T09:40:41.148Z,100.00
2022-09-22T09:43:07.976Z,100.00
2022-09-22T09:45:44.750Z,100.00
2022-09-22T09:48:34.418Z,100.00
2022-09-22T09:51:02.204Z,100.00
2022-09-22T09:53:34.370Z,100.00
2022-09-22T09:56:00.902Z,100.00
2022-09-22T09:58:45.684Z,100.00
2022-09-22T10:01:13.246Z,100.00
2022-09-22T10:03:43.876Z,100.00
2022-09-22T10:06:11.055Z,100.00
2022-09-22T10:08:49.323Z,100.00
2022-09-22T10:11:15.774Z,100.00
2022-09-22T10:13:43.203Z,100.00
2022-09-22T10:16:21.494Z,100.00
2022-09-22T10:18:48.892Z,100.00
2022-09-22T10:21:15.649Z,100.00
2022-09-22T10:23:46.692Z,100.00
2022-09-22T10:26:26.542Z,100.00
2022-09-22T10:29:11.857Z,100.00
2022-09-22T10:31:38.839Z,100.00
2022-09-22T10:34:06.514Z,100.00
2022-09-22T10:36:33.259Z,100.00
2022-09-22T10:39:00.080Z,100.00
2022-09-22T10:41:31.643Z,100.00
2022-09-22T10:44:06.345Z,100.00
2022-09-22T10:46:55.363Z,100.00
2022-09-22T10:49:24.746Z,100.00
2022-09-22T10:51:57.274Z,100.00
2022-09-22T10:54:26.622Z,100.00
2022-09-22T10:56:59.283Z,100.00
2022-09-22T10:59:32.621Z,100.00
2022-09-22T11:02:14.203Z,100.00
2022-09-22T11:04:47.419Z,100.00
2022-09-22T11:07:32.219Z,100.00
2022-09-22T11:10:24.232Z,100.00
2022-09-22T11:13:01.698Z,100.00
2022-09-22T11:15:28.119Z,100.00
2022-09-22T11:18:05.563Z,100.00
2022-09-22T11:20:32.299Z,100.00
2022-09-22T11:22:58.609Z,100.00
2022-09-22T11:25:50.662Z,100.00
2022-09-22T11:28:33.351Z,100.00
2022-09-22T11:31:00.741Z,100.00
2022-09-22T11:33:45.942Z,100.00
2022-09-22T11:36:18.448Z,100.00
2022-09-22T11:38:44.756Z,100.00
2022-09-22T11:41:29.983Z,100.00
2022-09-22T11:44:08.788Z,100.00
2022-09-22T11:46:55.182Z,100.00
2022-09-22T11:49:40.307Z,100.00
2022-09-22T11:52:21.935Z,100.00
2022-09-22T11:55:26.810Z,100.00
2022-09-22T11:57:57.233Z,100.00
2022-09-22T12:00:23.625Z,100.00
2022-09-22T12:03:01.809Z,100.00
2022-09-22T12:05:38.826Z,100.00
2022-09-22T12:08:07.494Z,100.00
2022-09-22T12:10:36.225Z,100.00
2022-09-22T12:13:04.341Z,100.00
2022-09-22T12:15:41.721Z,100.00
2022-09-22T12:18:10.829Z,100.00
2022-09-22T12:20:40.173Z,100.00
2022-09-22T12:23:25.479Z,100.00
2022-09-22T12:25:56.815Z,100.00
2022-09-22T12:28:25.759Z,100.00
2022-09-22T12:30:54.508Z,100.00
2022-09-22T12:33:21.956Z,100.00
2022-09-22T12:35:53.245Z,100.00
2022-09-22T12:38:20.954Z,100.00
2022-09-22T12:40:52.357Z,100.00
2022-09-22T12:43:21.327Z,100.00
2022-09-22T12:45:49.385Z,100.00
2022-09-22T12:48:22.169Z,100.00
2022-09-22T12:50:49.528Z,100.00
2022-09-22T12:53:22.057Z,100.00
2022-09-22T12:55:57.902Z,100.00
2022-09-22T12:58:30.258Z,100.00
2022-09-22T13:01:16.943Z,100.00
2022-09-22T13:03:50.498Z,100.00
2022-09-22T13:06:23.025Z,100.00
2022-09-22T13:08:52.320Z,100.00
2022-09-22T13:11:18.775Z,100.00
2022-09-22T13:13:46.732Z,100.00
2022-09-22T13:16:16.178Z,100.00
2022-09-22T13:18:46.118Z,100.00
2022-09-22T13:21:12.429Z,100.00
2022-09-22T13:23:50.972Z,100.00
2022-09-22T13:26:20.186Z,100.00
2022-09-22T13:28:59.212Z,100.00
2022-09-22T13:31:26.505Z,100.00
2022-09-22T13:33:52.926Z,100.00
2022-09-22T13:36:20.216Z,100.00
2022-09-22T13:38:50.988Z,100.00
2022-09-22T13:41:19.358Z,100.00
2022-09-22T13:43:48.667Z,100.00
2022-09-22T13:46:21.780Z,100.00
2022-09-22T13:48:49.456Z,100.00
2022-09-22T13:51:17.170Z,100.00
2022-09-22T13:53:49.234Z,100.00
2022-09-22T13:56:21.575Z,100.00
2022-09-22T13:58:49.845Z,100.00
2022-09-22T14:01:16.201Z,100.00
2022-09-22T14:03:43.554Z,100.00
2022-09-22T14:06:14.101Z,100.00
2022-09-22T14:08:41.246Z,100.00
2022-09-22T14:11:11.914Z,100.00
2022-09-22T14:13:43.439Z,100.00
2022-09-22T14:16:28.408Z,100.00
2022-09-22T14:19:06.768Z,100.00
2022-09-22T14:21:40.233Z,100.00
2022-09-22T14:24:06.756Z,100.00
2022-09-22T14:26:35.664Z,100.00
2022-09-22T14:29:15.078Z,100.00
2022-09-22T14:31:45.347Z,100.00
2022-09-22T14:34:16.016Z,100.00
2022-09-22T14:36:44.079Z,100.00
2022-09-22T14:39:16.052Z,100.00
2022-09-22T14:41:49.869Z,100.00
2022-09-22T14:44:26.619Z,100.00
2022-09-22T14:46:55.181Z,100.00
2022-09-22T14:49:39.436Z,100.00
2022-09-22T14:52:07.503Z,100.00
2022-09-22T14:54:35.221Z,100.00
2022-09-22T14:57:07.321Z,100.00
2022-09-22T14:59:54.370Z,100.00
2022-09-22T15:02:33.631Z,100.00
2022-09-22T15:05:04.627Z,100.00
2022-09-22T15:07:35.018Z,100.00
2022-09-22T15:10:18.873Z,100.00
2022-09-22T15:12:49.417Z,100.00
2022-09-22T15:15:17.010Z,100.00
2022-09-22T15:18:03.075Z,100.00
2022-09-22T15:20:42.711Z,100.00
2022-09-22T15:23:29.429Z,100.00
2022-09-22T15:25:55.993Z,100.00
2022-09-22T15:28:23.755Z,100.00
2022-09-22T15:30:51.822Z,100.00
2022-09-22T15:33:18.895Z,100.00
2022-09-22T15:35:46.965Z,100.00
2022-09-22T15:38:16.204Z,100.00
2022-09-22T15:40:42.646Z,100.00
2022-09-22T15:43:13.317Z,100.00
2022-09-22T15:45:49.236Z,100.00
2022-09-22T15:48:21.065Z,100.00
2022-09-22T15:50:47.450Z,100.00
2022-09-22T15:53:13.881Z,100.00
2022-09-22T15:55:40.249Z,100.00
2022-09-22T15:58:09.680Z,100.00
2022-09-22T16:00:36.693Z,100.00
2022-09-22T16:03:05.590Z,100.00
2022-09-22T16:05:34.037Z,100.00
2022-09-22T16:08:00.393Z,100.00
2022-09-22T16:10:26.710Z,100.00
2022-09-22T16:12:53.034Z,100.00
2022-09-22T16:15:19.403Z,100.00
2022-09-22T16:17:45.909Z,100.00
2022-09-22T16:20:14.109Z,100.00
2022-09-22T16:22:41.248Z,100.00
2022-09-22T16:25:09.340Z,100.00
2022-09-22T16:27:36.186Z,100.00
2022-09-22T16:30:02.698Z,100.00
2022-09-22T16:32:29.517Z,100.00
2022-09-22T16:34:55.868Z,100.00
2022-09-22T16:37:22.189Z,100.00
2022-09-22T16:39:49.046Z,100.00
2022-09-22T16:42:22.890Z,100.00
2022-09-22T16:44:49.940Z,100.00
2022-09-22T16:47:24.245Z,100.00
2022-09-22T16:49:51.726Z,100.00
2022-09-22T16:52:19.055Z,100.00
2022-09-22T16:54:46.162Z,100.00
2022-09-22T16:57:12.528Z,100.00
2022-09-22T16:59:38.835Z,100.00
2022-09-22T17:02:05.486Z,100.00
2022-09-22T17:04:32.399Z,100.00
2022-09-22T17:06:58.759Z,100.00
2022-09-22T17:09:25.110Z,100.00
2022-09-22T17:11:52.558Z,100.00
2022-09-22T17:14:23.033Z,100.00
2022-09-22T17:16:51.928Z,100.00
2022-09-22T17:19:21.205Z,100.00
2022-09-22T17:21:48.229Z,100.00
2022-09-22T17:24:14.937Z,100.00
2022-09-22T17:26:47.707Z,100.00
2022-09-22T17:29:28.193Z,100.00
2022-09-22T17:31:59.362Z,100.00
2022-09-22T17:34:26.385Z,100.00
2022-09-22T17:36:55.255Z,100.00
2022-09-22T17:39:22.355Z,100.00
2022-09-22T17:41:49.918Z,100.00
2022-09-22T17:44:21.363Z,100.00
2022-09-22T17:47:07.221Z,100.00
2022-09-22T17:49:52.279Z,100.00
2022-09-22T17:52:33.579Z,100.00
2022-09-22T17:55:07.540Z,100.00
2022-09-22T17:57:41.078Z,100.00
2022-09-22T18:00:12.154Z,100.00
2022-09-22T18:02:41.476Z,100.00
2022-09-22T18:05:09.263Z,100.00
2022-09-22T18:07:39.967Z,100.00
2022-09-22T18:10:16.805Z,100.00
2022-09-22T18:12:44.123Z,100.00
2022-09-22T18:15:13.119Z,100.00
2022-09-22T18:17:41.454Z,100.00
2022-09-22T18:20:12.397Z,100.00
2022-09-22T18:22:39.872Z,100.00
2022-09-22T18:25:08.269Z,100.00
2022-09-22T18:27:34.798Z,100.00
2022-09-22T18:30:01.428Z,100.00
2022-09-22T18:32:28.094Z,100.00
2022-09-22T18:34:55.195Z,100.00
2022-09-22T18:37:22.745Z,100.00
2022-09-22T18:39:50.377Z,100.00
2022-09-22T18:42:22.689Z,100.00
2022-09-22T18:44:48.988Z,100.00
2022-09-22T18:47:17.830Z,100.00
2022-09-22T18:49:44.978Z,100.00
2022-09-22T18:52:11.333Z,100.00
2022-09-22T18:54:39.888Z,100.00
2022-09-22T18:57:06.896Z,100.00
2022-09-22T18:59:33.304Z,100.00
2022-09-22T19:01:59.681Z,100.00
2022-09-22T19:04:26.974Z,100.00
2022-09-22T19:07:12.960Z,100.00
2022-09-22T19:09:39.674Z,100.00
2022-09-22T19:12:08.010Z,100.00
2022-09-22T19:14:36.582Z,100.00
2022-09-22T19:17:03.986Z,100.00
2022-09-22T19:19:30.534Z,100.00
2022-09-22T19:21:57.211Z,100.00
2022-09-22T19:24:24.993Z,100.00
2022-09-22T19:26:52.353Z,100.00
2022-09-22T19:29:19.082Z,100.00
2022-09-22T19:31:45.569Z,100.00
2022-09-22T19:34:13.027Z,100.00
2022-09-22T19:36:40.299Z,100.00
2022-09-22T19:39:08.626Z,100.00
2022-09-22T19:41:40.586Z,100.00
2022-09-22T19:44:07.659Z,100.00
2022-09-22T19:46:34.135Z,100.00
2022-09-22T19:49:03.044Z,100.00
2022-09-22T19:51:29.572Z,100.00
2022-09-22T19:53:56.609Z,100.00
2022-09-22T19:56:23.073Z,100.00
2022-09-22T19:58:49.767Z,100.00
2022-09-22T20:01:27.223Z,100.00
2022-09-22T20:03:54.283Z,100.00
2022-09-22T20:06:20.692Z,100.00
2022-09-22T20:08:47.135Z,100.00
2022-09-22T20:11:26.105Z,100.00
2022-09-22T20:14:12.090Z,100.00
2022-09-22T20:16:38.548Z,100.00
2022-09-22T20:19:05.186Z,100.00
2022-09-22T20:21:33.292Z,100.00
2022-09-22T20:23:59.738Z,100.00
2022-09-22T20:26:26.325Z,100.00
2022-09-22T20:28:53.436Z,100.00
2022-09-22T20:31:20.138Z,100.00
2022-09-22T20:33:46.629Z,100.00
2022-09-22T20:36:13.957Z,100.00
2022-09-22T20:38:40.838Z,100.00
2022-09-22T20:41:14.167Z,100.00
2022-09-22T20:43:40.618Z,100.00
2022-09-22T20:46:09.352Z,100.00
2022-09-22T20:48:35.817Z,100.00
2022-09-22T20:51:03.157Z,100.00
2022-09-22T20:53:31.812Z,100.00
2022-09-22T20:56:01.350Z,100.00
2022-09-22T20:58:32.290Z,100.00
2022-09-22T21:01:04.004Z,100.00
2022-09-22T21:03:30.476Z,100.00
2022-09-22T21:06:00.508Z,100.00
2022-09-22T21:08:45.427Z,100.00
2022-09-22T21:11:15.941Z,100.00
2022-09-22T21:13:42.755Z,100.00
2022-09-22T21:16:09.460Z,100.00
2022-09-22T21:18:36.606Z,100.00
2022-09-22T21:21:04.051Z,100.00
2022-09-22T21:23:31.126Z,100.00
2022-09-22T21:26:05.850Z,100.00
2022-09-22T21:28:32.542Z,100.00
2022-09-22T21:31:00.225Z,100.00
2022-09-22T21:33:27.610Z,100.00
2022-09-22T21:36:04.560Z,100.00
2022-09-22T21:38:31.064Z,100.00
2022-09-22T21:40:58.377Z,100.00
2022-09-22T21:43:24.765Z,100.00
2022-09-22T21:46:01.353Z,100.00
2022-09-22T21:48:31.347Z,100.00
2022-09-22T21:50:57.655Z,100.00
2022-09-22T21:53:24.347Z,100.00
2022-09-22T21:55:55.789Z,100.00
2022-09-22T21:58:22.082Z,100.00
2022-09-22T22:00:51.973Z,100.00
2022-09-22T22:03:30.399Z,100.00
2022-09-22T22:06:00.735Z,100.00
2022-09-22T22:08:27.075Z,100.00
2022-09-22T22:11:04.526Z,100.00
2022-09-22T22:13:32.183Z,100.00
2022-09-22T22:15:58.999Z,100.00
2022-09-22T22:18:25.346Z,100.00
2022-09-22T22:21:01.958Z,100.00
2022-09-22T22:23:30.995Z,100.00
2022-09-22T22:26:02.563Z,100.00
2022-09-22T22:28:29.819Z,100.00
2022-09-22T22:30:56.793Z,100.00
2022-09-22T22:33:23.531Z,100.00
2022-09-22T22:35:53.385Z,100.00
2022-09-22T22:38:20.787Z,100.00
2022-09-22T22:40:47.255Z,100.00
2022-09-22T22:43:14.489Z,100.00
2022-09-22T22:45:47.739Z,100.00
2022-09-22T22:48:15.208Z,100.00
2022-09-22T22:50:42.256Z,100.00
2022-09-22T22:53:10.959Z,100.00
2022-09-22T22:55:37.722Z,100.00
2022-09-22T22:58:04.713Z,100.00
2022-09-22T23:00:32.665Z,100.00
2022-09-22T23:02:59.665Z,100.00
2022-09-22T23:05:26.654Z,100.00
2022-09-22T23:07:53.761Z,100.00
2022-09-22T23:10:20.655Z,100.00
2022-09-22T23:12:47.621Z,100.00
2022-09-22T23:15:14.189Z,100.00
2022-09-22T23:17:40.502Z,100.00
2022-09-22T23:20:07.530Z,100.00
2022-09-22T23:22:33.904Z,100.00
2022-09-22T23:25:00.235Z,100.00
2022-09-22T23:27:26.580Z,100.00
2022-09-22T23:29:52.917Z,100.00
2022-09-22T23:32:19.224Z,100.00
2022-09-22T23:34:45.514Z,100.00
2022-09-22T23:37:11.823Z,100.00
2022-09-22T23:39:38.127Z,100.00
2022-09-22T23:42:04.678Z,100.00
2022-09-22T23:44:30.985Z,100.00
2022-09-22T23:46:59.129Z,100.00
2022-09-22T23:49:25.501Z,100.00
2022-09-22T23:51:51.904Z,100.00
2022-09-22T23:54:18.224Z,100.00
2022-09-22T23:56:45.866Z,100.00
2022-09-22T23:59:12.238Z,100.00
